Flight Track Log - Related Links

Times and Time Zones

All times are in EDT time to prevent confusion due to time zone crossing. See the CTL13 flight status page for this flight to view local times or setup timezone preferences in your user account.

Time Position Orientation Groundspeed Altitude Reporting Facility
EDT Latitude Longitude Course Direction KTS MPH feet Rate Location/Type
Tue 06:37:24 PM 41.5256 -81.6647 21° North 137 158 1,100  Level Cleveland Center
Tue 06:38:31 PM 41.5672 -81.6433 21° North 157 181 2,200 945 Climbing Cleveland Center
Tue 06:39:31 PM 41.5697 -81.5989 86° East 143 165 3,100 446 Climbing Cleveland Center
Tue 06:40:32 PM 41.5431 -81.5486 125° Southeast 178 205 3,100  Level Cleveland Center
Tue 06:41:39 PM 41.4933 -81.5339 167° South 165 190 3,100 142 Level Cleveland Center
Tue 06:42:39 PM 41.4517 -81.5333 179° South 143 165 3,400 397 Climbing Cleveland Center
Tue 06:43:40 PM 41.4158 -81.5522 202° Southwest 138 159 3,900 469 Climbing Cleveland Center
Tue 06:44:47 PM 41.3803 -81.5850 215° Southwest 126 145 4,400 365 Climbing Cleveland Center
Tue 06:45:35 PM 41.3611 -81.6178 232° Southwest 133 153 4,600 385 Climbing Cleveland Center
Tue 06:46:36 PM 41.3378 -81.6561 231° Southwest 132 152 5,100 541 Climbing Cleveland Center
Tue 06:47:37 PM 41.3167 -81.6917 232° Southwest 124 143 5,700 414 Climbing Cleveland Center
Tue 06:48:32 PM 41.2975 -81.7244 232° Southwest 125 144 5,900 155 Climbing Cleveland Center
Tue 06:49:33 PM 41.2742 -81.7656 233° Southwest 139 160 6,000 94 Climbing Cleveland Center
Tue 06:50:39 PM 41.2592 -81.8178 249° West 141 162 6,100  Climbing Cleveland Center
Tue 06:51:40 PM 41.2461 -81.8644 250° West 137 158 6,000  Descending Cleveland Center
Tue 06:52:40 PM 41.2331 -81.9139 251° West 134 154 6,100  Climbing Cleveland Center
Tue 06:53:41 PM 41.2200 -81.9578 248° West 134 154 6,000  Descending Cleveland Center
Tue 06:54:36 PM 41.2089 -82.0044 252° West 133 153 6,100 52 Climbing Cleveland Center
Tue 06:55:37 PM 41.2000 -82.0486 255° West 127 146 6,100  Level Cleveland Center
Tue 06:56:37 PM 41.1869 -82.0950 250° West 133 153 6,100 -6 Level Cleveland Center
Tue 06:58:00 PM 41.1725 -82.1514 251° West  Level FlightAware Approximate
Tue 07:05:00 PM 41.0992 -82.4366 251° West  Level FlightAware Approximate
Tue 07:06:00 PM 41.0885 -82.4772 251° West  Level FlightAware Approximate
Tue 07:07:00 PM 41.0778 -82.5178 251° West  Level FlightAware Approximate
Tue 07:08:00 PM 41.0671 -82.5584 251° West  Level FlightAware Approximate
Tue 07:09:00 PM 41.0564 -82.5989 251° West  Level FlightAware Approximate
Tue 07:10:00 PM 41.0456 -82.6395 251° West  Level FlightAware Approximate
Tue 07:11:00 PM 41.0349 -82.6801 251° West  Level FlightAware Approximate
Tue 07:12:00 PM 41.0241 -82.7206 251° West  Level FlightAware Approximate
Tue 07:13:00 PM 41.0133 -82.7611 251° West  Level FlightAware Approximate
Tue 07:13:31 PM 40.9900 -82.8589 250° West 131 151 6,000  Level Indianapolis Center
Tue 07:14:00 PM 41.0025 -82.8016 251° West  Level FlightAware Approximate
Tue 07:14:33 PM 40.9769 -82.9025 248° West 128 147 6,000  Level Indianapolis Center
Tue 07:15:00 PM 40.9917 -82.8421 251° West  Level FlightAware Approximate
Tue 07:15:34 PM 40.9628 -82.9469 247° West 130 150 6,000  Level Indianapolis Center
Tue 07:16:00 PM 40.9809 -82.8826 251° West  Level FlightAware Approximate
Tue 07:16:36 PM 40.9508 -82.9922 251° West 129 148 6,000  Level Indianapolis Center
Tue 07:17:00 PM 40.9701 -82.9231 250° West  Level FlightAware Approximate
Tue 07:17:38 PM 40.9356 -83.0381 246° West 134 154 5,900  Level Indianapolis Center
Tue 07:18:00 PM 40.9592 -82.9635 250° West  Level FlightAware Approximate
Tue 07:18:40 PM 40.9217 -83.0842 248° West 134 154 6,000  Level Indianapolis Center
Tue 07:19:41 PM 40.9097 -83.1394 254° West 133 153 6,000 49 Level Indianapolis Center
Tue 07:20:43 PM 40.8969 -83.1861 250° West 134 154 6,100  Climbing Indianapolis Center
Tue 07:21:45 PM 40.8872 -83.2339 255° West 134 154 6,000 -49 Descending Indianapolis Center
Tue 07:22:46 PM 40.8742 -83.2806 250° West 134 154 6,000  Level Indianapolis Center
Tue 07:23:48 PM 40.8622 -83.3272 251° West 133 153 6,000  Level Indianapolis Center
Tue 07:24:50 PM 40.8489 -83.3736 249° West 134 154 6,000 48 Level Indianapolis Center
Tue 07:25:52 PM 40.8344 -83.4192 247° West 134 154 6,100  Climbing Indianapolis Center
Tue 07:26:53 PM 40.8239 -83.4667 254° West 134 154 6,000 -49 Descending Indianapolis Center
Tue 07:27:55 PM 40.8128 -83.5133 253° West 128 147 6,000 48 Level Indianapolis Center
Tue 07:28:57 PM 40.8025 -83.5611 254° West 132 152 6,100  Climbing Indianapolis Center
Tue 07:29:58 PM 40.7917 -83.6086 253° West 134 154 6,000 -49 Descending Indianapolis Center
Tue 07:31:00 PM 40.7797 -83.6583 252° West 140 161 6,000  Level Indianapolis Center
Tue 07:32:02 PM 40.7672 -83.7133 253° West 135 155 6,000  Level Indianapolis Center
Tue 07:33:03 PM 40.7564 -83.7606 253° West 133 153 6,000  Level Indianapolis Center
Tue 07:34:05 PM 40.7450 -83.8083 253° West 135 155 6,000  Level Indianapolis Center
Tue 07:35:07 PM 40.7317 -83.8567 250° West 138 159 6,000  Level Indianapolis Center
Tue 07:36:08 PM 40.7208 -83.9031 253° West 134 154 6,000  Level Indianapolis Center
Tue 07:37:10 PM 40.7100 -83.9497 253° West 133 153 6,000  Level Indianapolis Center
Tue 07:38:12 PM 40.6950 -83.9967 247° West 134 154 6,000  Level Indianapolis Center
Tue 07:39:13 PM 40.6797 -84.0419 246° West 135 155 6,000  Level Indianapolis Center
Tue 07:40:15 PM 40.6647 -84.0875 247° West 135 155 6,000  Level Indianapolis Center
Tue 07:41:17 PM 40.6450 -84.1394 243° Southwest 135 155 6,000  Level Indianapolis Center
Tue 07:42:18 PM 40.6281 -84.1839 243° Southwest 135 155 6,000  Level Indianapolis Center
Tue 07:43:20 PM 40.6117 -84.2275 244° Southwest 134 154 6,000 -76 Level Indianapolis Center
Tue 07:43:37 PM 40.6050 -84.2406 236° Southwest 134 154 5,900  Descending Indianapolis Center
Tue 07:44:22 PM 40.5911 -84.2708 239° Southwest 135 155 6,000 57 Climbing Indianapolis Center
Tue 07:45:23 PM 40.5658 -84.3075 228° Southwest 135 155 6,000  Level Indianapolis Center
Tue 07:46:25 PM 40.5397 -84.3447 227° Southwest 136 157 6,000  Level Indianapolis Center
Tue 07:47:27 PM 40.5142 -84.3839 229° Southwest 137 158 6,000  Level Indianapolis Center
Tue 07:48:28 PM 40.4894 -84.4214 229° Southwest 137 158 6,000  Level Indianapolis Center
Tue 07:49:35 PM 40.4572 -84.4650 226° Southwest 137 158 6,000  Level Indianapolis Center
Tue 07:50:36 PM 40.4308 -84.5078 231° Southwest 141 162 6,000  Level Indianapolis Center
Tue 07:51:37 PM 40.4044 -84.5481 229° Southwest 141 162 6,000  Level Indianapolis Center
Tue 07:52:35 PM 40.3836 -84.5853 234° Southwest 141 162 6,000  Level Indianapolis Center
Tue 07:53:36 PM 40.3703 -84.6353 251° West 143 165 6,000  Level Indianapolis Center
Tue 07:54:38 PM 40.3561 -84.6800 247° West 139 160 6,000  Level Indianapolis Center
Tue 07:55:40 PM 40.3397 -84.7253 245° Southwest 134 154 6,000 -49 Level Indianapolis Center
Tue 07:56:40 PM 40.3250 -84.7753 249° West 132 152 5,900  Descending Indianapolis Center
Tue 07:57:43 PM 40.3139 -84.8142 249° West 132 152 6,000 49 Climbing Indianapolis Center
Tue 07:58:42 PM 40.2967 -84.8617 245° Southwest 133 153 6,000  Level Indianapolis Center
Tue 07:59:43 PM 40.2822 -84.9089 248° West 135 155 6,000 -48 Level Indianapolis Center
Tue 08:00:48 PM 40.2664 -84.9569 247° West 134 154 5,900 -50 Descending Indianapolis Center
Tue 08:01:44 PM 40.2539 -84.9978 248° West 135 155 5,900 47 Level Indianapolis Center
Tue 08:02:57 PM 40.2386 -85.0531 250° West 134 154 6,000 47 Climbing Indianapolis Center
Tue 08:03:52 PM 40.2244 -85.0950 246° West 131 151 6,000  Level Indianapolis Center
Tue 08:04:53 PM 40.2103 -85.1392 247° West 132 152 6,000  Level Indianapolis Center
Tue 08:06:33 PM 40.1864 -85.2122 247° West 164 189 6,000  Level Indianapolis Center
Tue 08:07:34 PM 40.1711 -85.2564 246° West 133 153 6,000  Level Indianapolis Center
Tue 08:08:36 PM 40.1569 -85.3000 247° West 132 152 6,000  Level Indianapolis Center
Tue 08:09:38 PM 40.1417 -85.3439 246° West 131 151 6,000  Level Indianapolis Center
Tue 08:10:39 PM 40.1264 -85.3897 246° West 132 152 6,000  Level Indianapolis Center
Tue 08:12:42 PM 40.1000 -85.4833 250° West 136 157 6,000 -34 Level Indianapolis TRACON
Tue 08:13:36 PM 40.0833 -85.5167 237° Southwest 136 157 5,900  Descending Indianapolis TRACON
Tue 08:14:30 PM 40.0667 -85.5667 246° West 135 155 6,000 -333 Climbing Indianapolis TRACON
Tue 08:15:24 PM 40.0500 -85.6000 237° Southwest 147 169 5,300 -632 Descending Indianapolis TRACON
Tue 08:16:24 PM 40.0333 -85.6500 246° West 155 178 4,800 -450 Descending Indianapolis TRACON
Tue 08:17:24 PM 40.0167 -85.7000 246° West 152 175 4,400 -400 Descending Indianapolis TRACON
Tue 08:18:24 PM 40.0167 -85.7667 270° West 159 183 4,000 -200 Descending Indianapolis TRACON
Tue 08:19:24 PM 40.0000 -85.8167 246° West 145 167 4,000 50 Level Indianapolis TRACON
Tue 08:20:24 PM 40.0000 -85.8667 270° West 141 162 4,100  Climbing Indianapolis TRACON
Tue 08:21:30 PM 40.0000 -85.9167 270° West 145 167 4,000  Descending Indianapolis TRACON
Tue 08:22:36 PM 40.0000 -85.9833 270° West 148 170 4,100 -190 Climbing Indianapolis TRACON
Tue 08:23:36 PM 39.9833 -86.0333 247° West 152 175 3,600 -421 Descending Indianapolis TRACON
Tue 08:24:30 PM 39.9667 -86.0667 237° Southwest 154 177 3,300 -333 Descending Indianapolis TRACON

Login

Don't have an account? Register now (free) for customized features, flight alerts, and more!